DFOO

Bobo Dioulasso Airport

Bobo Dioulasso, Burkina Faso
METAR DFOO 151300Z 02010KT CAVOK 31/08 Q1013
Observed Flight Rules
Dec-15 @ 13:00 UTC (58 minutes ago) Visual Flight Rules
Wind Visibility Clouds
20° at 10 knots 10,000+ meters
  • Clear skies
Temperatures Readings
Current 31°C / 88°F
Dewpoint 8°C / 46°F
Humidity 24%
Altimeter 29.91" Hg
Pressure 1013 hPa
Elevation 460
METAR DFOO 151300Z 02010KT CAVOK 31/08 Q1013
Observed Flight Rules
Dec-15 @ 13:00 UTC
(58 minutes ago)
VFR
Wind Visibility
20° at 10 knots 10,000+ meters
Clouds
  • Clear skies
Temperature Dewpoint
31°C / 88°F 8°C / 46°F
Humidity Altimeter Pressure
24% 29.91" Hg 1013 hPa